createdAt,value
2016-12-06T00:00:22.629Z,34.15
2016-12-06T00:00:54.962Z,34.06
2016-12-06T00:01:27.276Z,33.96
2016-12-06T00:01:59.613Z,34.06
2016-12-06T00:02:31.927Z,34.06
2016-12-06T00:03:04.253Z,34.06
2016-12-06T00:03:36.568Z,34.15
2016-12-06T00:04:08.888Z,34.06
2016-12-06T00:04:41.205Z,33.67
2016-12-06T00:05:13.525Z,33.77
2016-12-06T00:05:45.882Z,34.06
2016-12-06T00:06:18.198Z,34.06
2016-12-06T00:06:50.503Z,34.15
2016-12-06T00:07:22.813Z,33.67
2016-12-06T00:07:55.119Z,33.77
2016-12-06T00:08:27.440Z,33.67
2016-12-06T00:08:59.757Z,33.67
2016-12-06T00:09:32.084Z,33.86
2016-12-06T00:10:04.402Z,34.06
2016-12-06T00:10:36.731Z,33.96
2016-12-06T00:11:09.044Z,34.06
2016-12-06T00:11:41.369Z,34.06
2016-12-06T00:12:13.682Z,34.15
2016-12-06T00:12:46.011Z,33.96
2016-12-06T00:13:18.328Z,33.86
2016-12-06T00:13:50.638Z,34.06
2016-12-06T00:14:22.959Z,33.96
2016-12-06T00:14:55.289Z,34.06
2016-12-06T00:15:27.608Z,33.77
2016-12-06T00:15:59.930Z,33.96
2016-12-06T00:16:32.260Z,33.86
2016-12-06T00:17:04.572Z,33.96
2016-12-06T00:17:36.890Z,34.06
2016-12-06T00:18:09.198Z,33.77
2016-12-06T00:18:41.519Z,34.06
2016-12-06T00:19:13.850Z,33.96
2016-12-06T00:19:46.148Z,33.96
2016-12-06T00:20:18.453Z,33.67
2016-12-06T00:20:50.804Z,33.96
2016-12-06T00:21:23.107Z,33.77
2016-12-06T00:21:55.460Z,34.06
2016-12-06T00:22:27.762Z,33.96
2016-12-06T00:23:00.080Z,33.67
2016-12-06T00:23:32.408Z,33.96
2016-12-06T00:24:04.734Z,33.96
2016-12-06T00:24:37.053Z,33.77
2016-12-06T00:25:09.377Z,33.77
2016-12-06T00:25:41.692Z,33.96
2016-12-06T00:26:13.992Z,33.86
2016-12-06T00:26:46.306Z,33.96
2016-12-06T00:27:18.605Z,33.77
2016-12-06T00:27:50.924Z,33.88
2016-12-06T00:28:23.224Z,33.86
2016-12-06T00:28:55.543Z,34.06
2016-12-06T00:29:27.852Z,33.96
2016-12-06T00:30:00.179Z,33.96
2016-12-06T00:30:32.502Z,33.96
2016-12-06T00:31:04.816Z,33.77
2016-12-06T00:31:37.173Z,33.96
2016-12-06T00:32:09.502Z,33.67
2016-12-06T00:32:41.830Z,33.77
2016-12-06T00:33:14.149Z,33.96
2016-12-06T00:33:46.484Z,34.06
2016-12-06T00:34:18.824Z,33.86
2016-12-06T00:34:51.145Z,33.86
2016-12-06T00:35:23.471Z,33.86
2016-12-06T00:35:55.788Z,33.86
2016-12-06T00:36:28.114Z,33.86
2016-12-06T00:37:00.430Z,33.86
2016-12-06T00:37:32.777Z,33.96
2016-12-06T00:38:05.115Z,33.77
2016-12-06T00:38:37.419Z,33.86
2016-12-06T00:39:09.732Z,33.86
2016-12-06T00:39:42.068Z,34.06
2016-12-06T00:40:14.397Z,33.96
2016-12-06T00:40:46.718Z,33.96
2016-12-06T00:41:19.068Z,33.86
2016-12-06T00:41:51.374Z,34.06
2016-12-06T00:42:23.710Z,33.96
2016-12-06T00:42:56.032Z,34.06
2016-12-06T00:43:28.341Z,33.96
2016-12-06T00:44:00.653Z,33.96
2016-12-06T00:44:32.970Z,33.96
2016-12-06T00:45:05.296Z,33.86
2016-12-06T00:45:37.622Z,33.77
2016-12-06T00:46:09.927Z,33.96
2016-12-06T00:46:42.249Z,33.96
2016-12-06T00:47:14.560Z,33.86
2016-12-06T00:47:46.921Z,33.96
2016-12-06T00:48:19.235Z,33.96
2016-12-06T00:48:51.538Z,33.96
2016-12-06T00:49:23.837Z,33.86
2016-12-06T00:49:56.169Z,33.96
2016-12-06T00:50:28.506Z,34.06
2016-12-06T00:51:00.844Z,33.96
2016-12-06T00:51:33.166Z,33.77
2016-12-06T00:52:05.476Z,33.77
2016-12-06T00:52:37.802Z,33.96
2016-12-06T00:53:10.148Z,33.77
2016-12-06T00:53:42.472Z,33.77
2016-12-06T00:54:14.804Z,34.06
2016-12-06T00:54:47.137Z,33.96
2016-12-06T00:55:19.453Z,33.96
2016-12-06T00:55:51.780Z,33.96
2016-12-06T00:56:24.087Z,33.86
2016-12-06T00:56:56.409Z,33.86
2016-12-06T00:57:28.757Z,33.96
2016-12-06T00:58:01.074Z,34.06
2016-12-06T00:58:33.395Z,33.77
2016-12-06T00:59:05.724Z,33.77
2016-12-06T00:59:38.038Z,33.77
2016-12-06T01:00:10.357Z,33.77
2016-12-06T01:00:42.673Z,33.77
2016-12-06T01:01:14.986Z,33.86
2016-12-06T01:01:47.343Z,33.98
2016-12-06T01:02:19.671Z,33.77
2016-12-06T01:02:51.995Z,33.96
2016-12-06T01:03:24.337Z,33.48
2016-12-06T01:03:56.656Z,33.86
2016-12-06T01:04:28.975Z,33.86
2016-12-06T01:05:01.299Z,33.58
2016-12-06T01:05:33.596Z,33.96
2016-12-06T01:06:05.965Z,33.78
2016-12-06T01:06:38.293Z,33.96
2016-12-06T01:07:10.610Z,33.86
2016-12-06T01:07:42.925Z,33.86
2016-12-06T01:08:15.232Z,34.06
2016-12-06T01:08:47.532Z,33.77
2016-12-06T01:09:19.848Z,33.48
2016-12-06T01:09:52.156Z,33.88
2016-12-06T01:10:24.472Z,33.98
2016-12-06T01:10:56.790Z,33.39
2016-12-06T01:11:29.128Z,33.96
2016-12-06T01:12:01.449Z,33.59
2016-12-06T01:12:33.773Z,33.5
2016-12-06T01:13:06.099Z,33.58
2016-12-06T01:13:38.420Z,33.67
2016-12-06T01:14:10.752Z,33.48
2016-12-06T01:14:43.071Z,33.39
2016-12-06T01:15:15.372Z,33.4
2016-12-06T01:15:47.687Z,33.39
2016-12-06T01:16:20.001Z,33.67
2016-12-06T01:16:52.338Z,33.67
2016-12-06T01:17:24.675Z,33.48
2016-12-06T01:17:56.993Z,33.4
2016-12-06T01:18:29.310Z,33.48
2016-12-06T01:19:01.630Z,33.96
2016-12-06T01:19:33.981Z,33.39
2016-12-06T01:20:06.294Z,33.48
2016-12-06T01:20:38.613Z,33.48
2016-12-06T01:21:10.975Z,33.39
2016-12-06T01:21:43.284Z,33.39
2016-12-06T01:22:15.601Z,33.67
2016-12-06T01:22:47.912Z,33.39
2016-12-06T01:23:20.214Z,33.39
2016-12-06T01:23:52.517Z,33.48
2016-12-06T01:24:24.828Z,33.48
2016-12-06T01:24:57.134Z,33.48
2016-12-06T01:25:29.443Z,33.39
2016-12-06T01:26:01.755Z,33.58
2016-12-06T01:26:34.069Z,33.48
2016-12-06T01:27:06.379Z,33.48
2016-12-06T01:27:38.698Z,33.5
2016-12-06T01:28:11.027Z,33.58
2016-12-06T01:28:43.358Z,33.67
2016-12-06T01:29:15.687Z,33.58
2016-12-06T01:29:48.010Z,33.58
2016-12-06T01:30:20.348Z,33.58
2016-12-06T01:30:52.662Z,33.96
2016-12-06T01:31:24.964Z,33.77
2016-12-06T01:31:57.283Z,33.67
2016-12-06T01:32:29.580Z,33.48
2016-12-06T01:33:01.890Z,33.58
2016-12-06T01:33:34.209Z,33.96
2016-12-06T01:34:06.536Z,33.58
2016-12-06T01:34:38.853Z,33.67
2016-12-06T01:35:11.168Z,33.77
2016-12-06T01:35:43.485Z,33.48
2016-12-06T01:36:15.810Z,33.67
2016-12-06T01:36:48.138Z,33.58
2016-12-06T01:37:20.444Z,33.96
2016-12-06T01:37:52.753Z,33.77
2016-12-06T01:38:25.071Z,33.78
2016-12-06T01:38:57.384Z,33.67
2016-12-06T01:39:29.700Z,33.39
2016-12-06T01:40:02.023Z,33.67
2016-12-06T01:40:34.336Z,33.67
2016-12-06T01:41:06.646Z,33.67
2016-12-06T01:41:38.960Z,33.59
2016-12-06T01:42:11.283Z,33.58
2016-12-06T01:42:43.602Z,33.77
2016-12-06T01:43:15.930Z,33.98
2016-12-06T01:43:48.249Z,33.78
2016-12-06T01:44:20.555Z,33.58
2016-12-06T01:44:52.880Z,33.67
2016-12-06T01:45:25.193Z,33.58
2016-12-06T01:45:57.508Z,33.67
2016-12-06T01:46:29.827Z,33.58
2016-12-06T01:47:02.134Z,33.58
2016-12-06T01:47:34.463Z,33.58
2016-12-06T01:48:06.769Z,33.58
2016-12-06T01:48:39.127Z,33.5
2016-12-06T01:49:11.463Z,33.59
2016-12-06T01:49:43.766Z,33.58
2016-12-06T01:50:16.091Z,33.58
2016-12-06T01:50:48.419Z,33.77
2016-12-06T01:51:20.725Z,33.59
2016-12-06T01:51:53.070Z,33.58
2016-12-06T01:52:25.389Z,33.59
2016-12-06T01:52:57.746Z,33.48
2016-12-06T01:53:30.064Z,33.58
2016-12-06T01:54:02.381Z,33.58
2016-12-06T01:54:34.707Z,33.59
2016-12-06T01:55:07.015Z,33.58
2016-12-06T01:55:39.343Z,33.58
2016-12-06T01:56:11.676Z,33.59
2016-12-06T01:56:44.011Z,33.69
2016-12-06T01:57:16.326Z,33.59
2016-12-06T01:57:48.636Z,33.59
2016-12-06T01:58:20.960Z,33.78
2016-12-06T01:58:53.278Z,33.48
2016-12-06T01:59:25.595Z,33.59
2016-12-06T01:59:57.925Z,33.69
2016-12-06T02:00:30.246Z,33.59
2016-12-06T02:01:02.556Z,33.77
2016-12-06T02:01:34.869Z,33.5
2016-12-06T02:02:07.176Z,33.69
2016-12-06T02:02:39.498Z,33.5
2016-12-06T02:03:11.842Z,33.5
2016-12-06T02:03:44.188Z,33.69
2016-12-06T02:04:16.514Z,33.69
2016-12-06T02:04:48.858Z,33.5
2016-12-06T02:05:21.169Z,33.69
2016-12-06T02:05:53.528Z,33.4
2016-12-06T02:06:25.842Z,33.5
2016-12-06T02:06:58.159Z,33.59
2016-12-06T02:07:30.466Z,33.4
2016-12-06T02:08:02.798Z,33.5
2016-12-06T02:08:35.115Z,33.39
2016-12-06T02:09:07.440Z,33.59
2016-12-06T02:09:39.751Z,33.59
2016-12-06T02:10:12.076Z,33.5
2016-12-06T02:10:44.407Z,33.59
2016-12-06T02:11:16.726Z,33.69
2016-12-06T02:11:49.057Z,33.5
2016-12-06T02:12:21.363Z,33.69
2016-12-06T02:12:53.681Z,33.5
2016-12-06T02:13:26.015Z,33.69
2016-12-06T02:13:58.342Z,33.69
2016-12-06T02:14:30.662Z,33.58
2016-12-06T02:15:02.979Z,33.78
2016-12-06T02:15:35.315Z,33.69
2016-12-06T02:16:07.625Z,33.59
2016-12-06T02:16:39.943Z,33.69
2016-12-06T02:17:12.269Z,33.59
2016-12-06T02:17:44.576Z,33.31
2016-12-06T02:18:16.899Z,33.59
2016-12-06T02:18:49.221Z,33.21
2016-12-06T02:19:21.545Z,33.58
2016-12-06T02:19:53.852Z,33.59
2016-12-06T02:20:26.182Z,33.31
2016-12-06T02:20:58.477Z,33.78
2016-12-06T02:21:30.822Z,33.69
2016-12-06T02:22:03.137Z,33.31
2016-12-06T02:22:35.460Z,33.59
2016-12-06T02:23:07.784Z,33.59
2016-12-06T02:23:40.110Z,33.21
2016-12-06T02:24:12.439Z,33.21
2016-12-06T02:24:44.748Z,33.31
2016-12-06T02:25:17.061Z,33.21
2016-12-06T02:25:49.372Z,33.31
2016-12-06T02:26:21.701Z,33.31
2016-12-06T02:26:54.015Z,33.67
2016-12-06T02:27:26.338Z,33.21
2016-12-06T02:27:58.671Z,33.78
2016-12-06T02:28:30.990Z,33.21
2016-12-06T02:29:03.298Z,33.78
2016-12-06T02:29:35.603Z,33.5
2016-12-06T02:30:07.916Z,33.4
2016-12-06T02:30:40.239Z,33.31
2016-12-06T02:31:12.539Z,33.69
2016-12-06T02:31:44.873Z,33.5
2016-12-06T02:32:17.190Z,33.5
2016-12-06T02:32:49.506Z,33.19
2016-12-06T02:33:21.844Z,33.59
2016-12-06T02:33:54.159Z,33.21
2016-12-06T02:34:26.468Z,33.69
2016-12-06T02:34:58.779Z,33.5
2016-12-06T02:35:31.091Z,33.21
2016-12-06T02:36:03.405Z,33.5
2016-12-06T02:36:35.736Z,33.21
2016-12-06T02:37:08.050Z,33.21
2016-12-06T02:37:40.369Z,33.31
2016-12-06T02:38:12.681Z,33.21
2016-12-06T02:38:44.993Z,33.21
2016-12-06T02:39:17.318Z,33.21
2016-12-06T02:39:49.641Z,33.21
2016-12-06T02:40:21.962Z,33.19
2016-12-06T02:40:54.273Z,33.48
2016-12-06T02:41:26.594Z,33.31
2016-12-06T02:41:58.915Z,33.29
2016-12-06T02:42:31.242Z,33.19
2016-12-06T02:43:03.577Z,33.21
2016-12-06T02:43:35.887Z,33.59
2016-12-06T02:44:08.209Z,33.5
2016-12-06T02:44:40.520Z,33.58
2016-12-06T02:45:12.840Z,33.29
2016-12-06T02:45:45.150Z,33.59
2016-12-06T02:46:17.480Z,33.21
2016-12-06T02:46:49.812Z,33.21
2016-12-06T02:47:22.124Z,33.19
2016-12-06T02:47:54.481Z,33.58
2016-12-06T02:48:26.802Z,33.19
2016-12-06T02:48:59.119Z,33.58
2016-12-06T02:49:31.435Z,33.29
2016-12-06T02:50:03.787Z,33.39
2016-12-06T02:50:36.116Z,33.48
2016-12-06T02:51:08.431Z,33.21
2016-12-06T02:51:40.740Z,33.59
2016-12-06T02:52:13.059Z,33.19
2016-12-06T02:52:45.380Z,33.21
2016-12-06T02:53:17.708Z,33.21
2016-12-06T02:53:50.024Z,33.19
2016-12-06T02:54:22.334Z,33.39
2016-12-06T02:54:54.681Z,33.19
2016-12-06T02:55:27.004Z,33.29
2016-12-06T02:55:59.338Z,33.19
2016-12-06T02:56:31.639Z,33.21
2016-12-06T02:57:03.946Z,33.39
2016-12-06T02:57:36.284Z,33.19
2016-12-06T02:58:08.591Z,33.19
2016-12-06T02:58:40.917Z,33.19
2016-12-06T02:59:13.241Z,33.21
2016-12-06T02:59:45.555Z,33.19
2016-12-06T03:00:17.879Z,33.29
2016-12-06T03:00:50.188Z,33.29
2016-12-06T03:01:22.497Z,33.39
2016-12-06T03:01:54.824Z,33.19
2016-12-06T03:02:27.170Z,33.48
2016-12-06T03:02:59.484Z,33.39
2016-12-06T03:03:31.817Z,33.4
2016-12-06T03:04:04.126Z,33.21
2016-12-06T03:04:36.436Z,33.31
2016-12-06T03:05:08.786Z,33.29
2016-12-06T03:05:41.109Z,33.39
2016-12-06T03:06:13.430Z,33.21
2016-12-06T03:06:45.760Z,33.19
2016-12-06T03:07:18.086Z,33.39
2016-12-06T03:07:50.415Z,33.21
2016-12-06T03:08:22.739Z,33.19
2016-12-06T03:08:55.050Z,33.39
2016-12-06T03:09:27.365Z,33.29
2016-12-06T03:09:59.667Z,33.39
2016-12-06T03:10:31.980Z,33.29
2016-12-06T03:11:04.311Z,33.19
2016-12-06T03:11:36.621Z,33.19
2016-12-06T03:12:08.943Z,33.19
2016-12-06T03:12:41.284Z,33.39
2016-12-06T03:13:13.595Z,33.39
2016-12-06T03:13:45.927Z,33.48
2016-12-06T03:14:18.231Z,33.29
2016-12-06T03:14:50.547Z,33.19
2016-12-06T03:15:22.848Z,33.48
2016-12-06T03:15:55.195Z,33.4
2016-12-06T03:16:27.509Z,33.39
2016-12-06T03:16:59.832Z,33.39
2016-12-06T03:17:32.132Z,33.29
2016-12-06T03:18:04.446Z,33.19
2016-12-06T03:18:36.761Z,33.29
2016-12-06T03:19:09.080Z,33.29
2016-12-06T03:19:41.401Z,33.29
2016-12-06T03:20:13.764Z,33.39
2016-12-06T03:20:46.121Z,33.29
2016-12-06T03:21:18.451Z,33.09
2016-12-06T03:21:50.810Z,33.58
2016-12-06T03:22:23.127Z,33.19
2016-12-06T03:22:55.446Z,33.21
2016-12-06T03:23:27.783Z,33.29
2016-12-06T03:24:00.127Z,33
2016-12-06T03:24:32.438Z,33.31
2016-12-06T03:25:04.771Z,33.29
2016-12-06T03:25:37.099Z,33.39
2016-12-06T03:26:09.425Z,33.19
2016-12-06T03:26:41.727Z,33.39
2016-12-06T03:27:14.028Z,33.29
2016-12-06T03:27:46.349Z,33.39
2016-12-06T03:28:18.668Z,32.9
2016-12-06T03:28:50.971Z,33.19
2016-12-06T03:29:23.300Z,33.39
2016-12-06T03:29:55.629Z,33.19
2016-12-06T03:30:27.928Z,33.59
2016-12-06T03:31:00.251Z,33.48
2016-12-06T03:31:32.569Z,33.39
2016-12-06T03:32:04.887Z,33.39
2016-12-06T03:32:37.209Z,33.09
2016-12-06T03:33:09.505Z,33.31
2016-12-06T03:33:41.826Z,32.9
2016-12-06T03:34:14.139Z,33.48
2016-12-06T03:34:46.461Z,33.58
2016-12-06T03:35:18.795Z,32.81
2016-12-06T03:35:51.117Z,33.39
2016-12-06T03:36:23.439Z,33
2016-12-06T03:36:55.774Z,33.39
2016-12-06T03:37:28.096Z,33.48
2016-12-06T03:38:00.417Z,33.59
2016-12-06T03:38:32.740Z,33.58
2016-12-06T03:39:05.061Z,33.58
2016-12-06T03:39:37.390Z,33.5
2016-12-06T03:40:09.734Z,33.48
2016-12-06T03:40:42.050Z,33.48
2016-12-06T03:41:14.370Z,33.48
2016-12-06T03:41:46.687Z,33.39
2016-12-06T03:42:18.991Z,32.9
2016-12-06T03:42:51.316Z,33.48
2016-12-06T03:43:23.640Z,33.39
2016-12-06T03:43:55.940Z,33.58
2016-12-06T03:44:28.249Z,33.48
2016-12-06T03:45:00.546Z,33.58
2016-12-06T03:45:32.833Z,33.48
2016-12-06T03:46:05.161Z,33.48
2016-12-06T03:46:37.480Z,33.48
2016-12-06T03:47:09.799Z,33.39
2016-12-06T03:47:42.117Z,33.4
2016-12-06T03:48:14.438Z,32.81
2016-12-06T03:48:46.748Z,33.4
2016-12-06T03:49:19.066Z,33.39
2016-12-06T03:49:51.365Z,33.48
2016-12-06T03:50:23.675Z,33
2016-12-06T03:50:56.018Z,33.58
2016-12-06T03:51:28.336Z,33.39
2016-12-06T03:52:00.655Z,33.11
2016-12-06T03:52:32.975Z,33.67
2016-12-06T03:53:05.286Z,32.9
2016-12-06T03:53:37.605Z,33.39
2016-12-06T03:54:09.925Z,33.48
2016-12-06T03:54:42.270Z,33.4
2016-12-06T03:55:14.586Z,33.39
2016-12-06T03:55:46.907Z,33.58
2016-12-06T03:56:19.231Z,33.67
2016-12-06T03:56:51.551Z,33
2016-12-06T03:57:23.881Z,33.29
2016-12-06T03:57:56.206Z,33.4
2016-12-06T03:58:28.532Z,33.58
2016-12-06T03:59:00.855Z,33.19
2016-12-06T03:59:33.187Z,33.48
2016-12-06T04:00:05.508Z,33.29
2016-12-06T04:00:37.837Z,33.39
2016-12-06T04:01:10.152Z,33.39
2016-12-06T04:01:42.458Z,33.48
2016-12-06T04:02:14.789Z,33.39
2016-12-06T04:02:47.108Z,33.4
2016-12-06T04:03:19.419Z,33.19
2016-12-06T04:03:51.772Z,33.39
2016-12-06T04:04:24.091Z,33.5
2016-12-06T04:04:56.422Z,33.48
2016-12-06T04:05:28.734Z,33.4
2016-12-06T04:06:01.075Z,33.48
2016-12-06T04:06:33.389Z,33.09
2016-12-06T04:07:05.709Z,33.39
2016-12-06T04:07:38.003Z,33.39
2016-12-06T04:08:10.322Z,33.39
2016-12-06T04:08:42.640Z,33.39
2016-12-06T04:09:14.959Z,33.39
2016-12-06T04:09:47.266Z,33.39
2016-12-06T04:10:19.586Z,33.19
2016-12-06T04:10:51.905Z,33.39
2016-12-06T04:11:24.233Z,33.5
2016-12-06T04:11:56.541Z,33.29
2016-12-06T04:12:28.851Z,33.4
2016-12-06T04:13:01.165Z,33.39
2016-12-06T04:13:33.474Z,33.21
2016-12-06T04:14:05.794Z,33.39
2016-12-06T04:14:38.108Z,33.31
2016-12-06T04:15:10.432Z,33.48
2016-12-06T04:15:42.752Z,33.29
2016-12-06T04:16:15.063Z,33.48
2016-12-06T04:16:47.384Z,33.11
2016-12-06T04:17:19.705Z,33.4
2016-12-06T04:17:52.025Z,33.09
2016-12-06T04:18:24.330Z,33.11
2016-12-06T04:18:56.648Z,33.39
2016-12-06T04:19:28.973Z,33.39
2016-12-06T04:20:01.299Z,33
2016-12-06T04:20:33.616Z,33.29
2016-12-06T04:21:05.935Z,33.31
2016-12-06T04:21:38.241Z,33.31
2016-12-06T04:22:10.535Z,33.5
2016-12-06T04:22:42.857Z,33.29
2016-12-06T04:23:15.211Z,33.21
2016-12-06T04:23:47.525Z,33.39
2016-12-06T04:24:19.848Z,33.4
2016-12-06T04:24:52.172Z,33.09
2016-12-06T04:25:24.501Z,33.4
2016-12-06T04:25:56.858Z,33.11
2016-12-06T04:26:29.181Z,33.4
2016-12-06T04:27:01.508Z,33.21
2016-12-06T04:27:33.829Z,33.19
2016-12-06T04:28:06.185Z,33.09
2016-12-06T04:28:38.495Z,33.19
2016-12-06T04:29:10.810Z,33.31
2016-12-06T04:29:43.143Z,33.31
2016-12-06T04:30:15.480Z,33.09
2016-12-06T04:30:47.796Z,33.09
2016-12-06T04:31:20.120Z,33.19
2016-12-06T04:31:52.418Z,33.19
2016-12-06T04:32:24.745Z,33.09
2016-12-06T04:32:57.068Z,33.09
2016-12-06T04:33:29.393Z,33.09
2016-12-06T04:34:01.704Z,33.09
2016-12-06T04:34:34.023Z,33.19
2016-12-06T04:35:06.349Z,33.01
2016-12-06T04:35:38.649Z,33.01
2016-12-06T04:36:10.997Z,33.21
2016-12-06T04:36:43.362Z,33.21
2016-12-06T04:37:15.676Z,33.21
2016-12-06T04:37:48.024Z,33.21
2016-12-06T04:38:20.325Z,33.11
2016-12-06T04:38:52.634Z,33
2016-12-06T04:39:24.965Z,33.19
2016-12-06T04:39:57.272Z,33.19
2016-12-06T04:40:29.573Z,33.19
2016-12-06T04:41:01.888Z,33.19
2016-12-06T04:41:34.219Z,33.31
2016-12-06T04:42:06.533Z,33.31
2016-12-06T04:42:38.853Z,33.21
2016-12-06T04:43:11.167Z,33.19
2016-12-06T04:43:43.478Z,33.11
2016-12-06T04:44:15.789Z,33.21
2016-12-06T04:44:48.115Z,33.09
2016-12-06T04:45:20.431Z,33.4
2016-12-06T04:45:52.742Z,33.09
2016-12-06T04:46:25.065Z,33.11
2016-12-06T04:46:57.393Z,33.19
2016-12-06T04:47:29.710Z,33.19
2016-12-06T04:48:02.030Z,33.31
2016-12-06T04:48:34.353Z,33.4
2016-12-06T04:49:06.672Z,33.21
2016-12-06T04:49:38.979Z,33.31
2016-12-06T04:50:11.307Z,33.4
2016-12-06T04:50:43.606Z,33.21
2016-12-06T04:51:15.921Z,33.29
2016-12-06T04:51:48.243Z,33.21
2016-12-06T04:52:20.565Z,33.31
2016-12-06T04:52:52.897Z,33.31
2016-12-06T04:53:25.217Z,33.31
2016-12-06T04:53:57.563Z,33.31
2016-12-06T04:54:29.879Z,33.29
2016-12-06T04:55:02.206Z,33.01
2016-12-06T04:55:34.511Z,33.4
2016-12-06T04:56:06.856Z,33.31
2016-12-06T04:56:39.160Z,33.31
2016-12-06T04:57:11.488Z,33.31
2016-12-06T04:57:43.848Z,33.31
2016-12-06T04:58:16.148Z,33.11
2016-12-06T04:58:48.462Z,33.39
2016-12-06T04:59:20.780Z,33.21
2016-12-06T04:59:53.098Z,33.11
2016-12-06T05:00:25.415Z,33.01
2016-12-06T05:00:57.740Z,33.31
2016-12-06T05:01:30.048Z,33.31
2016-12-06T05:02:02.370Z,33.11
2016-12-06T05:02:34.691Z,33.21
2016-12-06T05:03:07.009Z,33.31
2016-12-06T05:03:39.349Z,33.19
2016-12-06T05:04:11.664Z,33.29
2016-12-06T05:04:43.974Z,33.19
2016-12-06T05:05:16.291Z,33.11
2016-12-06T05:05:48.609Z,33.29
2016-12-06T05:06:20.926Z,33.19
2016-12-06T05:06:53.239Z,33.21
2016-12-06T05:07:25.552Z,33.31
2016-12-06T05:07:57.864Z,33.31
2016-12-06T05:08:30.193Z,33.39
2016-12-06T05:09:02.526Z,33.11
2016-12-06T05:09:34.850Z,33.31
2016-12-06T05:10:07.173Z,33.11
2016-12-06T05:10:39.495Z,33
2016-12-06T05:11:11.836Z,33
2016-12-06T05:11:44.140Z,33.11
2016-12-06T05:12:16.457Z,33.11
2016-12-06T05:12:48.798Z,33.09
2016-12-06T05:13:21.115Z,33.11
2016-12-06T05:13:53.434Z,33.01
2016-12-06T05:14:25.747Z,33.11
2016-12-06T05:14:58.086Z,33.11
2016-12-06T05:15:30.419Z,33.09
2016-12-06T05:16:02.742Z,33.09
2016-12-06T05:16:35.057Z,33.11
2016-12-06T05:17:07.381Z,33.29
2016-12-06T05:17:39.694Z,33.01
2016-12-06T05:18:12.000Z,33.11
2016-12-06T05:18:44.310Z,33.09
2016-12-06T05:19:16.626Z,33.01
2016-12-06T05:19:48.949Z,33.29
2016-12-06T05:20:21.275Z,33.09
2016-12-06T05:20:53.587Z,33.09
2016-12-06T05:21:25.896Z,33.11
2016-12-06T05:21:58.228Z,33.09
2016-12-06T05:22:30.546Z,33.19
2016-12-06T05:23:02.868Z,33.09
2016-12-06T05:23:35.179Z,33.01
2016-12-06T05:24:07.500Z,33.11
2016-12-06T05:24:39.828Z,33.11
2016-12-06T05:25:12.152Z,33.19
2016-12-06T05:25:44.488Z,33.01
2016-12-06T05:26:16.818Z,33
2016-12-06T05:26:49.145Z,33.09
2016-12-06T05:27:21.457Z,33.19
2016-12-06T05:27:53.785Z,33.19
2016-12-06T05:28:26.098Z,33.11
2016-12-06T05:28:58.439Z,33.09
2016-12-06T05:29:30.758Z,33
2016-12-06T05:30:03.077Z,33.09
2016-12-06T05:30:35.406Z,33
2016-12-06T05:31:07.731Z,33.39
2016-12-06T05:31:40.047Z,33
2016-12-06T05:32:12.363Z,33.19
2016-12-06T05:32:44.679Z,33
2016-12-06T05:33:17.000Z,33.09
2016-12-06T05:33:49.330Z,33.09
2016-12-06T05:34:21.651Z,33.09
2016-12-06T05:34:53.984Z,33.09
2016-12-06T05:35:26.288Z,33
2016-12-06T05:35:58.598Z,33.09
2016-12-06T05:36:30.904Z,33.01
2016-12-06T05:37:03.224Z,33.01
2016-12-06T05:37:35.545Z,33.19
2016-12-06T05:38:07.859Z,33
2016-12-06T05:38:40.184Z,33.19
2016-12-06T05:39:12.508Z,33
2016-12-06T05:39:44.846Z,33
2016-12-06T05:40:17.176Z,33
2016-12-06T05:40:49.531Z,33
2016-12-06T05:41:21.852Z,33.01
2016-12-06T05:41:54.186Z,32.9
2016-12-06T05:42:26.507Z,33.01
2016-12-06T05:42:58.865Z,33
2016-12-06T05:43:31.186Z,32.9
2016-12-06T05:44:03.505Z,33.09
2016-12-06T05:44:35.840Z,32.9
2016-12-06T05:45:08.165Z,33
2016-12-06T05:45:40.477Z,33.01
2016-12-06T05:46:12.801Z,32.9
2016-12-06T05:46:45.122Z,32.9
2016-12-06T05:47:17.440Z,33
2016-12-06T05:47:49.745Z,33
2016-12-06T05:48:22.063Z,33
2016-12-06T05:48:54.395Z,33
2016-12-06T05:49:26.712Z,33.09
2016-12-06T05:49:59.042Z,32.92
2016-12-06T05:50:31.344Z,32.9
2016-12-06T05:51:03.691Z,32.71
2016-12-06T05:51:36.017Z,33.09
2016-12-06T05:52:08.350Z,33
2016-12-06T05:52:40.683Z,33.01
2016-12-06T05:53:12.998Z,33
2016-12-06T05:53:45.330Z,32.81
2016-12-06T05:54:17.636Z,32.9
2016-12-06T05:54:49.953Z,32.9
2016-12-06T05:55:22.258Z,33
2016-12-06T05:55:54.603Z,33.09
2016-12-06T05:56:26.918Z,33.19
2016-12-06T05:56:59.250Z,33.21
2016-12-06T05:57:31.574Z,33
2016-12-06T05:58:03.887Z,32.9
2016-12-06T05:58:36.218Z,33.09
2016-12-06T05:59:08.578Z,32.9
2016-12-06T05:59:40.892Z,33
2016-12-06T06:00:13.210Z,32.81
2016-12-06T06:00:45.531Z,32.9
2016-12-06T06:01:17.871Z,32.9
2016-12-06T06:01:50.200Z,33.09
2016-12-06T06:02:22.509Z,32.81
2016-12-06T06:02:54.828Z,32.81
2016-12-06T06:03:27.169Z,33
2016-12-06T06:03:59.482Z,33.19
2016-12-06T06:04:31.802Z,32.62
2016-12-06T06:05:04.121Z,33.29
2016-12-06T06:05:36.431Z,32.81
2016-12-06T06:06:08.733Z,33
2016-12-06T06:06:41.063Z,32.82
2016-12-06T06:07:13.373Z,32.81
2016-12-06T06:07:45.680Z,32.81
2016-12-06T06:08:18.059Z,33
2016-12-06T06:08:50.377Z,33.39
2016-12-06T06:09:22.691Z,33.39
2016-12-06T06:09:55.023Z,32.81
2016-12-06T06:10:27.365Z,32.62
2016-12-06T06:10:59.678Z,33
2016-12-06T06:11:31.996Z,33
2016-12-06T06:12:04.312Z,33
2016-12-06T06:12:36.672Z,33.39
2016-12-06T06:13:09.003Z,33.19
2016-12-06T06:13:41.323Z,33.19
2016-12-06T06:14:13.646Z,33.39
2016-12-06T06:14:45.966Z,33
2016-12-06T06:15:18.289Z,33.29
2016-12-06T06:15:50.605Z,32.64
2016-12-06T06:16:22.922Z,33.48
2016-12-06T06:16:55.244Z,33.19
2016-12-06T06:17:27.570Z,33.48
2016-12-06T06:18:00.357Z,33.48
2016-12-06T06:18:32.675Z,32.71
2016-12-06T06:19:04.995Z,33
2016-12-06T06:19:37.360Z,33.29
2016-12-06T06:20:09.686Z,32.71
2016-12-06T06:20:42.006Z,33
2016-12-06T06:21:14.330Z,33.11
2016-12-06T06:21:46.647Z,33.29
2016-12-06T06:22:18.967Z,32.71
2016-12-06T06:22:51.354Z,33
2016-12-06T06:23:23.681Z,32.64
2016-12-06T06:23:56.008Z,33.48
2016-12-06T06:24:28.349Z,33.19
2016-12-06T06:25:00.655Z,33.19
2016-12-06T06:25:32.982Z,33.09
2016-12-06T06:26:05.296Z,33.19
2016-12-06T06:26:37.607Z,33.21
2016-12-06T06:27:09.919Z,33.29
2016-12-06T06:27:42.248Z,33.29
2016-12-06T06:28:17.002Z,33.09
2016-12-06T06:28:50.308Z,33
2016-12-06T06:29:22.637Z,33.09
2016-12-06T06:29:54.963Z,33.09
2016-12-06T06:30:27.294Z,33
2016-12-06T06:30:59.617Z,33.19
2016-12-06T06:31:31.940Z,33.19
2016-12-06T06:32:04.291Z,33.09
2016-12-06T06:32:36.627Z,32.73
2016-12-06T06:33:09.922Z,32.81
2016-12-06T06:33:42.279Z,32.73
2016-12-06T06:34:14.602Z,33.39
2016-12-06T06:34:47.530Z,33.09
2016-12-06T06:35:20.399Z,32.71
2016-12-06T06:35:52.721Z,33.19
2016-12-06T06:36:25.043Z,32.81
2016-12-06T06:36:58.957Z,32.82
2016-12-06T06:37:32.356Z,33.09
2016-12-06T06:38:05.413Z,33.09
2016-12-06T06:38:39.723Z,33
2016-12-06T06:39:13.261Z,32.81
2016-12-06T06:39:46.113Z,33.01
2016-12-06T06:40:18.996Z,33.09
2016-12-06T06:40:52.759Z,32.71
2016-12-06T06:41:26.533Z,33.09
2016-12-06T06:42:01.914Z,33.09
2016-12-06T06:43:55.241Z,32.62
2016-12-06T06:44:29.707Z,32.71
2016-12-06T06:45:03.422Z,33.09
2016-12-06T06:45:37.624Z,33.09
2016-12-06T06:46:12.549Z,33.09
2016-12-06T06:46:47.849Z,33.09
2016-12-06T06:47:21.483Z,33
2016-12-06T06:47:55.351Z,33.11
2016-12-06T06:48:27.765Z,33.11
2016-12-06T06:49:00.106Z,33
2016-12-06T06:49:32.464Z,33.09
2016-12-06T06:50:04.793Z,32.71
2016-12-06T06:50:37.111Z,32.73
2016-12-06T06:51:09.431Z,33.09
2016-12-06T06:51:41.737Z,33.29
2016-12-06T06:52:14.022Z,32.81
2016-12-06T06:52:46.346Z,33.09
2016-12-06T06:53:18.987Z,33
2016-12-06T06:53:51.770Z,33.39
2016-12-06T06:54:24.289Z,33
2016-12-06T06:54:57.807Z,33.09
2016-12-06T06:55:30.124Z,33.09
2016-12-06T06:56:02.673Z,33.09
2016-12-06T06:56:34.988Z,33
2016-12-06T06:57:07.316Z,33.09
2016-12-06T06:57:40.115Z,33.09
2016-12-06T06:58:12.537Z,33
2016-12-06T06:58:44.875Z,33.09
2016-12-06T06:59:17.923Z,33.09
2016-12-06T06:59:50.631Z,32.81
2016-12-06T07:00:23.314Z,32.81
2016-12-06T07:00:56.142Z,33.19
2016-12-06T07:01:28.995Z,33.29
2016-12-06T07:02:01.838Z,33.19